Time;durP1;ratioP1;P1;durP2;ratioP2;P2;SDS_P1;SDS_P2;PMS_P1;PMS_P2;Temp;Humidity;BMP_temperature;BMP_pressure;BME280_temperature;BME280_humidity;BME280_pressure;Samples;Min_cycle;Max_cycle;Signal;HPM_P1;HPM_P2
2023/03/22 00:01:32;;;;;;;;;;;18.30;67.90;;;;;;5025492;28;42907;-83
2023/03/22 00:03:57;;;;;;;;;;;18.10;67.80;;;;;;5027524;28;42830;-83
2023/03/22 00:06:23;;;;;;;;;;;18.30;67.40;;;;;;5025710;28;43017;-82
2023/03/22 00:08:50;;;;;;;;;;;18.20;67.90;;;;;;5008708;28;44150;-81
2023/03/22 00:11:16;;;;;;;;;;;18.10;68.00;;;;;;5027204;28;42952;-83
2023/03/22 00:13:42;;;;;;;;;;;18.20;67.50;;;;;;5027128;28;44201;-84
2023/03/22 00:16:08;;;;;;;;;;;18.20;68.10;;;;;;5027118;28;42950;-82
2023/03/22 00:18:34;;;;;;;;;;;18.20;68.00;;;;;;5027857;28;42862;-84
2023/03/22 00:21:00;;;;;;;;;;;18.20;68.10;;;;;;5027826;28;43021;-83
2023/03/22 00:23:26;;;;;;;;;;;18.30;67.90;;;;;;5007227;28;44460;-82
2023/03/22 00:25:52;;;;;;;;;;;18.30;68.00;;;;;;5027229;28;42826;-78
2023/03/22 00:28:18;;;;;;;;;;;18.40;68.00;;;;;;5026907;28;43826;-82
2023/03/22 00:30:54;;;;;;;;;;;18.30;67.90;;;;;;5027090;28;42972;-81
2023/03/22 00:33:19;;;;;;;;;;;18.30;68.00;;;;;;5007990;28;44831;-83
2023/03/22 00:35:49;;;;;;;;;;;18.30;68.10;;;;;;5026748;28;42948;-80
2023/03/22 00:38:14;;;;;;;;;;;18.20;66.80;;;;;;5024304;28;43625;-84
2023/03/22 00:40:40;;;;;;;;;;;18.30;68.10;;;;;;5025921;28;42913;-81
2023/03/22 00:43:06;;;;;;;;;;;18.30;68.10;;;;;;5025847;28;43469;-81
2023/03/22 00:45:35;;;;;;;;;;;18.20;67.90;;;;;;5026380;28;42874;-83
2023/03/22 00:48:00;;;;;;;;;;;18.30;68.10;;;;;;5026388;28;43348;-84
2023/03/22 00:50:26;;;;;;;;;;;18.10;68.00;;;;;;5026853;28;42926;-83
2023/03/22 00:52:53;;;;;;;;;;;18.20;67.50;;;;;;5024896;28;63311;-83
2023/03/22 00:55:19;;;;;;;;;;;18.40;68.30;;;;;;5025959;28;42914;-83
2023/03/22 00:57:44;;;;;;;;;;;18.30;68.20;;;;;;5025404;28;43607;-84
2023/03/22 01:00:13;;;;;;;;;;;18.20;68.30;;;;;;5026296;28;42849;-82
2023/03/22 01:02:40;;;;;;;;;;;18.20;67.80;;;;;;5025998;28;43011;-81
2023/03/22 01:05:06;;;;;;;;;;;18.20;68.20;;;;;;5025979;28;43007;-77
2023/03/22 01:07:32;;;;;;;;;;;18.10;67.90;;;;;;5025866;28;43548;-83
2023/03/22 01:09:57;;;;;;;;;;;18.30;68.50;;;;;;5026519;28;42906;-83
2023/03/22 01:12:23;;;;;;;;;;;18.20;67.80;;;;;;5025553;28;42925;-82
2023/03/22 01:14:48;;;;;;;;;;;18.20;68.30;;;;;;5026275;28;42830;-83
2023/03/22 01:17:14;;;;;;;;;;;18.20;68.60;;;;;;5026867;28;43747;-84
2023/03/22 01:19:40;;;;;;;;;;;18.40;68.30;;;;;;5026845;28;42887;-83
2023/03/22 01:22:06;;;;;;;;;;;18.10;68.20;;;;;;5008044;28;43699;-84
2023/03/22 01:24:31;;;;;;;;;;;18.20;68.20;;;;;;5024575;28;43008;-80
2023/03/22 01:26:57;;;;;;;;;;;18.30;68.20;;;;;;5022109;28;42966;-72
2023/03/22 01:29:23;;;;;;;;;;;18.20;68.10;;;;;;5005441;28;43554;-81
2023/03/22 01:31:49;;;;;;;;;;;18.30;68.90;;;;;;5022285;28;42913;-82
2023/03/22 01:34:14;;;;;;;;;;;18.00;68.10;;;;;;5025506;28;42972;-84
2023/03/22 01:36:40;;;;;;;;;;;18.70;68.60;;;;;;5024197;28;43928;-81
2023/03/22 01:39:05;;;;;;;;;;;18.30;68.30;;;;;;5008325;28;43511;-83
2023/03/22 01:41:34;;;;;;;;;;;18.40;67.90;;;;;;5018422;28;42842;-83
2023/03/22 01:44:18;;;;;;;;;;;18.20;68.20;;;;;;5005437;28;43206;-82
2023/03/22 01:46:45;;;;;;;;;;;18.20;67.10;;;;;;5007737;28;43086;-82
2023/03/22 01:49:13;;;;;;;;;;;18.30;68.30;;;;;;5023116;28;43037;-82
2023/03/22 01:51:39;;;;;;;;;;;18.30;68.30;;;;;;5024494;28;43599;-77
2023/03/22 01:54:07;;;;;;;;;;;18.30;68.30;;;;;;5024195;28;43075;-81
2023/03/22 01:56:34;;;;;;;;;;;18.20;68.60;;;;;;5023396;28;43377;-84
2023/03/22 01:59:00;;;;;;;;;;;18.10;68.20;;;;;;5022734;28;42929;-84
2023/03/22 02:01:26;;;;;;;;;;;18.20;68.30;;;;;;5005284;28;42892;-77
2023/03/22 02:04:02;;;;;;;;;;;18.30;68.30;;;;;;5004428;28;43126;-82
2023/03/22 02:06:28;;;;;;;;;;;18.40;67.20;;;;;;5004880;28;42974;-78
2023/03/22 02:08:57;;;;;;;;;;;18.30;68.40;;;;;;5020183;28;43063;-78
2023/03/22 02:11:26;;;;;;;;;;;18.20;68.30;;;;;;5024081;28;43932;-84
2023/03/22 02:14:02;;;;;;;;;;;18.20;68.30;;;;;;5024584;28;42787;-83
2023/03/22 02:16:33;;;;;;;;;;;18.30;68.30;;;;;;5024235;28;43516;-83
2023/03/22 02:18:59;;;;;;;;;;;18.30;67.10;;;;;;5007713;28;43160;-83
2023/03/22 02:21:43;;;;;;;;;;;18.30;68.30;;;;;;5004513;28;43808;-84
2023/03/22 02:24:33;;;;;;;;;;;18.20;67.00;;;;;;5004873;28;42945;-83
2023/03/22 02:26:59;;;;;;;;;;;18.40;67.10;;;;;;5009518;28;42899;-83
2023/03/22 02:29:25;;;;;;;;;;;18.40;68.20;;;;;;5005940;28;42933;-85
2023/03/22 02:32:11;;;;;;;;;;;18.30;68.30;;;;;;5003912;28;43688;-85
2023/03/22 02:34:40;;;;;;;;;;;18.40;67.10;;;;;;5004575;28;44111;-84
2023/03/22 02:37:14;;;;;;;;;;;18.30;67.70;;;;;;5004255;28;42981;-83
2023/03/22 02:39:55;;;;;;;;;;;18.30;68.40;;;;;;5003993;28;43089;-81
2023/03/22 02:42:23;;;;;;;;;;;18.60;67.50;;;;;;5003896;28;43210;-83
2023/03/22 02:45:09;;;;;;;;;;;18.40;67.40;;;;;;5006000;28;42933;-83
2023/03/22 02:47:48;;;;;;;;;;;18.20;68.40;;;;;;5004503;28;42947;-83
2023/03/22 02:50:22;;;;;;;;;;;18.30;67.20;;;;;;5006640;28;42977;-86
2023/03/22 02:53:06;;;;;;;;;;;18.30;67.20;;;;;;5012448;28;43034;-85
2023/03/22 02:55:40;;;;;;;;;;;18.80;67.50;;;;;;5004344;28;43160;-81
2023/03/22 02:58:10;;;;;;;;;;;18.30;67.20;;;;;;5001925;28;44343;-81
2023/03/22 03:00:37;;;;;;;;;;;18.20;68.30;;;;;;5004123;28;42860;-79
2023/03/22 03:03:10;;;;;;;;;;;18.30;68.40;;;;;;5003108;28;43541;-83
2023/03/22 03:05:38;;;;;;;;;;;18.30;68.50;;;;;;5003549;28;43129;-83
2023/03/22 03:08:03;;;;;;;;;;;18.40;68.90;;;;;;5004024;28;43719;-81
2023/03/22 03:10:29;;;;;;;;;;;18.20;68.40;;;;;;5004516;28;42886;-81
2023/03/22 03:12:56;;;;;;;;;;;18.20;68.70;;;;;;5004508;28;42978;-82
2023/03/22 03:15:23;;;;;;;;;;;18.40;68.80;;;;;;5004679;28;42998;-83
2023/03/22 03:17:54;;;;;;;;;;;18.30;68.80;;;;;;5004471;28;43122;-82
2023/03/22 03:20:29;;;;;;;;;;;18.30;67.60;;;;;;5004338;28;42970;-82
2023/03/22 03:23:06;;;;;;;;;;;18.30;67.60;;;;;;5004296;28;44087;-83
2023/03/22 03:25:42;;;;;;;;;;;18.20;67.60;;;;;;5004590;28;43068;-82
2023/03/22 03:28:29;;;;;;;;;;;18.10;67.40;;;;;;5003906;28;43006;-82
2023/03/22 03:30:59;;;;;;;;;;;18.30;67.50;;;;;;5003367;28;42910;-83
2023/03/22 03:33:26;;;;;;;;;;;18.30;68.60;;;;;;5003873;28;43706;-82
2023/03/22 03:35:55;;;;;;;;;;;18.30;68.60;;;;;;5003365;28;43009;-82
2023/03/22 03:38:25;;;;;;;;;;;18.30;68.70;;;;;;5003774;28;42942;-83
2023/03/22 03:40:56;;;;;;;;;;;18.30;68.70;;;;;;5003729;28;42920;-82
2023/03/22 03:43:24;;;;;;;;;;;18.30;67.50;;;;;;5004270;28;43615;-83
2023/03/22 03:45:50;;;;;;;;;;;18.20;68.80;;;;;;5004154;28;43069;-83
2023/03/22 03:48:20;;;;;;;;;;;18.30;68.90;;;;;;5003700;28;43439;-82
2023/03/22 03:50:47;;;;;;;;;;;18.20;68.70;;;;;;5004028;28;42851;-83
2023/03/22 03:53:12;;;;;;;;;;;18.20;68.70;;;;;;5004033;28;43304;-83
2023/03/22 03:55:38;;;;;;;;;;;18.30;68.70;;;;;;5003406;28;42928;-82
2023/03/22 03:58:03;;;;;;;;;;;18.40;68.80;;;;;;5004349;28;43824;-84
2023/03/22 04:00:29;;;;;;;;;;;18.40;68.70;;;;;;5004426;28;42917;-82
2023/03/22 04:02:55;;;;;;;;;;;18.20;68.50;;;;;;5003108;28;43485;-84
2023/03/22 04:05:20;;;;;;;;;;;18.20;68.60;;;;;;5003368;28;42946;-82
2023/03/22 04:07:46;;;;;;;;;;;18.20;68.70;;;;;;5003632;28;44017;-82
2023/03/22 04:10:11;;;;;;;;;;;18.30;68.60;;;;;;5003290;28;42843;-82
2023/03/22 04:12:37;;;;;;;;;;;18.30;68.80;;;;;;5003491;28;44328;-82
2023/03/22 04:15:03;;;;;;;;;;;18.20;68.60;;;;;;5003701;28;43049;-83
2023/03/22 04:17:30;;;;;;;;;;;18.00;68.40;;;;;;5003870;28;42938;-81
2023/03/22 04:19:56;;;;;;;;;;;18.30;68.60;;;;;;5004062;28;42843;-83
2023/03/22 04:22:22;;;;;;;;;;;18.40;68.70;;;;;;5003594;28;42768;-82
2023/03/22 04:24:48;;;;;;;;;;;18.30;68.60;;;;;;5003722;28;42780;-83
2023/03/22 04:27:17;;;;;;;;;;;18.20;68.60;;;;;;5003389;28;43029;-84
2023/03/22 04:29:47;;;;;;;;;;;18.10;68.80;;;;;;5003300;28;43075;-83
2023/03/22 04:32:21;;;;;;;;;;;18.20;68.70;;;;;;5003223;28;43367;-83
2023/03/22 04:34:47;;;;;;;;;;;18.20;67.40;;;;;;5003567;28;42886;-83
2023/03/22 04:37:13;;;;;;;;;;;18.10;68.50;;;;;;5003368;28;43013;-84
2023/03/22 04:39:39;;;;;;;;;;;18.60;68.80;;;;;;5002967;28;43000;-83
2023/03/22 04:42:04;;;;;;;;;;;18.10;68.50;;;;;;5003259;28;42960;-83
2023/03/22 04:44:30;;;;;;;;;;;18.20;69.10;;;;;;5006567;28;43069;-83
2023/03/22 04:46:56;;;;;;;;;;;18.10;68.90;;;;;;5016054;28;43077;-83
2023/03/22 04:49:22;;;;;;;;;;;18.00;68.60;;;;;;5018486;28;42925;-83
2023/03/22 04:51:47;;;;;;;;;;;18.20;68.70;;;;;;5010062;28;43891;-81
2023/03/22 04:54:13;;;;;;;;;;;18.30;68.60;;;;;;5013017;28;42946;-83
2023/03/22 04:56:38;;;;;;;;;;;18.10;68.60;;;;;;5007023;28;42993;-83
2023/03/22 04:59:04;;;;;;;;;;;18.20;68.70;;;;;;5007891;28;42776;-83
2023/03/22 05:01:29;;;;;;;;;;;18.40;68.90;;;;;;5005577;28;43901;-82
2023/03/22 05:03:55;;;;;;;;;;;18.30;68.70;;;;;;5017700;28;42917;-83
2023/03/22 05:06:20;;;;;;;;;;;18.20;68.60;;;;;;5016075;28;43415;-84
2023/03/22 05:08:46;;;;;;;;;;;18.20;69.20;;;;;;5018604;28;43032;-87
2023/03/22 05:11:12;;;;;;;;;;;18.20;68.70;;;;;;5015338;28;42897;-87
2023/03/22 05:13:38;;;;;;;;;;;18.20;68.80;;;;;;5012897;28;42787;-86
2023/03/22 05:16:04;;;;;;;;;;;18.10;68.60;;;;;;5007536;28;42907;-86
2023/03/22 05:18:31;;;;;;;;;;;18.20;68.70;;;;;;5007788;28;43097;-86
2023/03/22 05:20:57;;;;;;;;;;;18.20;68.70;;;;;;5018006;28;42960;-86
2023/03/22 05:23:23;;;;;;;;;;;18.20;68.70;;;;;;5011113;28;43887;-88
2023/03/22 05:25:50;;;;;;;;;;;18.00;68.80;;;;;;5006516;28;42952;-87
2023/03/22 05:28:18;;;;;;;;;;;18.10;68.90;;;;;;5008470;28;42937;-88
2023/03/22 05:30:44;;;;;;;;;;;18.10;68.90;;;;;;5014067;28;42985;-87
2023/03/22 05:33:10;;;;;;;;;;;18.00;68.90;;;;;;5006022;28;42841;-86
2023/03/22 05:35:37;;;;;;;;;;;18.10;68.90;;;;;;5006630;28;42993;-83
2023/03/22 05:38:03;;;;;;;;;;;18.30;69.10;;;;;;5009275;28;43118;-87
2023/03/22 05:40:29;;;;;;;;;;;18.10;68.90;;;;;;5026486;28;43806;-86
2023/03/22 05:42:55;;;;;;;;;;;18.20;68.90;;;;;;5019414;28;43021;-86
2023/03/22 05:45:21;;;;;;;;;;;18.10;68.70;;;;;;5014781;28;43007;-84
2023/03/22 05:47:47;;;;;;;;;;;18.20;68.90;;;;;;5020284;28;43047;-83
2023/03/22 05:50:13;;;;;;;;;;;18.10;68.90;;;;;;5021347;28;43049;-86
2023/03/22 05:52:39;;;;;;;;;;;18.60;69.50;;;;;;5013870;28;43278;-81
2023/03/22 05:55:06;;;;;;;;;;;17.80;69.50;;;;;;5014197;28;43523;-78
2023/03/22 05:57:32;;;;;;;;;;;17.80;68.70;;;;;;5013787;28;43498;-83
2023/03/22 05:59:57;;;;;;;;;;;17.60;69.20;;;;;;5018344;28;43794;-88
2023/03/22 06:02:23;;;;;;;;;;;17.70;69.30;;;;;;5015944;28;43093;-84
2023/03/22 06:04:50;;;;;;;;;;;17.60;69.60;;;;;;5013422;28;43375;-84
2023/03/22 06:07:17;;;;;;;;;;;17.60;69.50;;;;;;5008631;28;43117;-85
2023/03/22 06:09:42;;;;;;;;;;;17.60;69.60;;;;;;5005162;28;42949;-84
2023/03/22 06:12:08;;;;;;;;;;;17.40;69.50;;;;;;5019261;28;43199;-85
2023/03/22 06:14:33;;;;;;;;;;;17.50;69.00;;;;;;5013009;28;43232;-85
2023/03/22 06:16:59;;;;;;;;;;;17.50;69.50;;;;;;5015212;28;43012;-76
2023/03/22 06:19:24;;;;;;;;;;;17.40;69.70;;;;;;5012634;28;43097;-82
2023/03/22 06:21:51;;;;;;;;;;;17.40;69.70;;;;;;5015049;28;42984;-83
2023/03/22 06:24:17;;;;;;;;;;;17.60;70.20;;;;;;5015302;28;43979;-83
2023/03/22 06:26:43;;;;;;;;;;;17.50;70.20;;;;;;5010670;28;43989;-83
2023/03/22 06:29:08;;;;;;;;;;;17.40;70.10;;;;;;5005700;28;42898;-83
2023/03/22 06:31:34;;;;;;;;;;;17.40;70.20;;;;;;5006008;28;42968;-82
2023/03/22 06:33:59;;;;;;;;;;;17.60;69.70;;;;;;5005752;28;43017;-83
2023/03/22 06:36:25;;;;;;;;;;;17.50;70.10;;;;;;5006310;28;42774;-83
2023/03/22 06:38:50;;;;;;;;;;;17.40;70.00;;;;;;5005615;28;43308;-83
2023/03/22 06:41:16;;;;;;;;;;;17.40;70.00;;;;;;5005593;28;42977;-83
2023/03/22 06:43:41;;;;;;;;;;;17.30;70.20;;;;;;5005684;28;43425;-77
2023/03/22 06:46:07;;;;;;;;;;;17.50;70.30;;;;;;5006362;28;42861;-83
2023/03/22 06:48:32;;;;;;;;;;;17.60;70.30;;;;;;5005982;28;43499;-83
2023/03/22 06:50:58;;;;;;;;;;;17.40;70.20;;;;;;5005994;28;42926;-82
2023/03/22 06:53:24;;;;;;;;;;;17.60;70.70;;;;;;5006138;28;43036;-82
2023/03/22 06:55:50;;;;;;;;;;;17.50;70.30;;;;;;5006386;28;43083;-83
2023/03/22 06:58:15;;;;;;;;;;;17.50;70.40;;;;;;5005699;28;43639;-83
2023/03/22 07:00:41;;;;;;;;;;;17.40;70.40;;;;;;5005253;28;43105;-82
2023/03/22 07:03:07;;;;;;;;;;;17.60;70.60;;;;;;5005044;28;43626;-83
2023/03/22 07:05:32;;;;;;;;;;;17.50;70.70;;;;;;5005799;28;42840;-83
2023/03/22 07:07:58;;;;;;;;;;;17.50;70.50;;;;;;5005789;28;43030;-82
2023/03/22 07:10:23;;;;;;;;;;;17.60;70.50;;;;;;5005861;28;43240;-82
2023/03/22 07:12:49;;;;;;;;;;;17.70;70.50;;;;;;5005604;28;42992;-82
2023/03/22 07:15:16;;;;;;;;;;;17.60;70.30;;;;;;5005392;28;43098;-82
2023/03/22 07:17:42;;;;;;;;;;;17.50;70.10;;;;;;4987757;28;44852;-82
2023/03/22 07:20:07;;;;;;;;;;;17.70;70.00;;;;;;5005687;28;42865;-83
2023/03/22 07:22:33;;;;;;;;;;;17.60;69.20;;;;;;5005458;28;42904;-83
2023/03/22 07:24:58;;;;;;;;;;;17.60;69.20;;;;;;5005413;28;42957;-82
2023/03/22 07:27:24;;;;;;;;;;;17.50;69.00;;;;;;5005478;28;42926;-81
2023/03/22 07:29:49;;;;;;;;;;;17.60;68.60;;;;;;4987698;28;43090;-83
2023/03/22 07:32:15;;;;;;;;;;;17.80;68.50;;;;;;5005390;28;42948;-77
2023/03/22 07:34:41;;;;;;;;;;;18.00;68.00;;;;;;5005503;28;43006;-83
2023/03/22 07:37:07;;;;;;;;;;;17.90;68.00;;;;;;5005289;28;43610;-83
2023/03/22 07:39:33;;;;;;;;;;;17.90;67.60;;;;;;5005252;28;43012;-83
2023/03/22 07:41:58;;;;;;;;;;;17.80;68.00;;;;;;5004956;28;43899;-82
2023/03/22 07:44:24;;;;;;;;;;;17.90;68.10;;;;;;5005348;28;42863;-83
2023/03/22 07:46:51;;;;;;;;;;;18.00;67.90;;;;;;5004809;28;43833;-83
2023/03/22 07:49:16;;;;;;;;;;;17.90;67.80;;;;;;5005153;28;42895;-78
2023/03/22 07:51:42;;;;;;;;;;;18.20;67.90;;;;;;5005142;28;42943;-82
2023/03/22 07:54:07;;;;;;;;;;;18.10;67.80;;;;;;5005071;28;42841;-83
2023/03/22 07:56:33;;;;;;;;;;;18.10;67.20;;;;;;4986920;28;45711;-83
2023/03/22 07:58:59;;;;;;;;;;;18.10;67.70;;;;;;5004929;28;42907;-82
2023/03/22 08:01:24;;;;;;;;;;;18.10;67.80;;;;;;5004692;28;43367;-84
2023/03/22 08:03:50;;;;;;;;;;;18.10;67.90;;;;;;5005110;28;43096;-82
2023/03/22 08:06:18;;;;;;;;;;;18.10;67.80;;;;;;5005096;28;43599;-82
2023/03/22 08:08:44;;;;;;;;;;;18.00;67.70;;;;;;5004683;28;42957;-82
2023/03/22 08:11:11;;;;;;;;;;;18.20;68.00;;;;;;5003993;28;42804;-83
2023/03/22 08:13:36;;;;;;;;;;;18.10;68.00;;;;;;5004533;28;42941;-84
2023/03/22 08:16:02;;;;;;;;;;;18.10;67.90;;;;;;5003915;28;43391;-83
2023/03/22 08:18:27;;;;;;;;;;;18.10;68.00;;;;;;5004202;28;43015;-83
2023/03/22 08:20:55;;;;;;;;;;;18.10;67.30;;;;;;5003902;28;43239;-82
2023/03/22 08:23:21;;;;;;;;;;;18.10;68.00;;;;;;5007026;28;42938;-83
2023/03/22 08:25:46;;;;;;;;;;;18.20;68.10;;;;;;5008232;28;42985;-79
2023/03/22 08:28:13;;;;;;;;;;;18.20;68.20;;;;;;5007701;28;42855;-84
2023/03/22 08:30:38;;;;;;;;;;;18.20;68.00;;;;;;5007765;28;42924;-84
2023/03/22 08:33:05;;;;;;;;;;;18.20;67.90;;;;;;5007880;28;43363;-83
2023/03/22 08:35:31;;;;;;;;;;;18.20;68.00;;;;;;5007978;28;42760;-83
2023/03/22 08:37:56;;;;;;;;;;;18.20;67.90;;;;;;5008144;28;42859;-83
2023/03/22 08:40:22;;;;;;;;;;;18.20;68.10;;;;;;5007859;28;42950;-83
2023/03/22 08:42:48;;;;;;;;;;;18.20;68.10;;;;;;5008075;28;42886;-82
2023/03/22 08:45:14;;;;;;;;;;;18.20;68.20;;;;;;5007883;28;42946;-84
2023/03/22 08:47:40;;;;;;;;;;;18.20;68.20;;;;;;5008150;28;43467;-82
2023/03/22 08:50:06;;;;;;;;;;;18.30;68.30;;;;;;5007822;28;42945;-83
2023/03/22 08:52:32;;;;;;;;;;;18.30;67.70;;;;;;5007772;28;43021;-83
2023/03/22 08:54:57;;;;;;;;;;;18.20;68.10;;;;;;5007883;28;43409;-83
2023/03/22 08:57:23;;;;;;;;;;;18.30;68.10;;;;;;5007792;28;42850;-83
2023/03/22 08:59:51;;;;;;;;;;;18.20;68.00;;;;;;5007799;28;43898;-84
2023/03/22 09:02:16;;;;;;;;;;;18.30;67.90;;;;;;5008073;28;42903;-81
2023/03/22 09:04:42;;;;;;;;;;;18.30;68.10;;;;;;5007034;28;43564;-83
2023/03/22 09:07:07;;;;;;;;;;;18.30;68.10;;;;;;5007139;28;42981;-82
2023/03/22 09:09:33;;;;;;;;;;;18.40;68.50;;;;;;5006943;28;43605;-83
2023/03/22 09:11:58;;;;;;;;;;;18.40;68.30;;;;;;5007501;28;43070;-83
2023/03/22 09:14:24;;;;;;;;;;;18.30;68.60;;;;;;5006936;28;43504;-82
2023/03/22 09:16:50;;;;;;;;;;;18.30;68.30;;;;;;5007237;28;42932;-82
2023/03/22 09:19:16;;;;;;;;;;;18.40;68.30;;;;;;5007388;28;43029;-83
2023/03/22 09:21:41;;;;;;;;;;;18.30;68.30;;;;;;5007460;28;42970;-83
2023/03/22 09:24:07;;;;;;;;;;;18.30;68.20;;;;;;5007094;28;43751;-83
2023/03/22 09:26:33;;;;;;;;;;;18.40;68.00;;;;;;5006547;28;42901;-83
2023/03/22 09:28:58;;;;;;;;;;;18.40;68.00;;;;;;5006839;28;43539;-81
2023/03/22 09:31:24;;;;;;;;;;;18.50;68.10;;;;;;5006768;28;43013;-82
2023/03/22 09:33:49;;;;;;;;;;;18.50;68.30;;;;;;5005497;28;43344;-83
2023/03/22 09:36:15;;;;;;;;;;;18.40;68.20;;;;;;5006635;28;42933;-83
2023/03/22 09:38:41;;;;;;;;;;;18.50;68.40;;;;;;5006565;28;43406;-83
2023/03/22 09:41:18;;;;;;;;;;;18.40;68.30;;;;;;5006283;28;42773;-82
2023/03/22 09:43:53;;;;;;;;;;;18.60;68.40;;;;;;5006523;28;43326;-84
2023/03/22 09:46:22;;;;;;;;;;;18.40;67.20;;;;;;5006637;28;42733;-84
2023/03/22 09:48:49;;;;;;;;;;;18.40;68.50;;;;;;5006853;28;42812;-83
2023/03/22 09:51:33;;;;;;;;;;;18.40;68.60;;;;;;5006792;28;42934;-83
2023/03/22 09:53:59;;;;;;;;;;;18.60;67.60;;;;;;5006435;28;44815;-83
2023/03/22 09:56:26;;;;;;;;;;;18.40;68.80;;;;;;5006684;28;43143;-83
2023/03/22 09:58:57;;;;;;;;;;;18.30;68.80;;;;;;5006796;28;43558;-84
2023/03/22 10:01:23;;;;;;;;;;;18.30;67.60;;;;;;5006546;28;42834;-84
2023/03/22 10:04:02;;;;;;;;;;;18.40;68.90;;;;;;5006755;28;43688;-84
2023/03/22 10:06:27;;;;;;;;;;;18.40;67.50;;;;;;5006537;28;42760;-83
2023/03/22 10:08:58;;;;;;;;;;;18.40;69.10;;;;;;5006553;28;42952;-84
2023/03/22 10:11:42;;;;;;;;;;;18.50;68.80;;;;;;5007057;28;43258;-84
2023/03/22 10:14:22;;;;;;;;;;;18.30;67.50;;;;;;5006727;28;42886;-83
2023/03/22 10:16:50;;;;;;;;;;;18.60;67.70;;;;;;5006673;28;43011;-83
2023/03/22 10:19:18;;;;;;;;;;;18.40;69.00;;;;;;5005107;28;42954;-83
2023/03/22 10:21:46;;;;;;;;;;;18.30;68.90;;;;;;5006214;28;42914;-83
2023/03/22 10:24:15;;;;;;;;;;;18.40;69.00;;;;;;5006519;28;43751;-83
2023/03/22 10:26:43;;;;;;;;;;;18.50;69.10;;;;;;5006253;28;42910;-84
2023/03/22 10:29:21;;;;;;;;;;;18.60;69.20;;;;;;5006096;28;43507;-84
2023/03/22 10:31:46;;;;;;;;;;;18.40;67.90;;;;;;5006050;28;42864;-84
2023/03/22 10:34:15;;;;;;;;;;;18.40;69.10;;;;;;5006483;28;42934;-83
2023/03/22 10:36:41;;;;;;;;;;;18.70;68.10;;;;;;5006260;28;42927;-84
2023/03/22 10:39:18;;;;;;;;;;;18.50;69.20;;;;;;5005767;28;43510;-84
2023/03/22 10:41:45;;;;;;;;;;;18.50;68.00;;;;;;5005438;28;42977;-84
2023/03/22 10:44:14;;;;;;;;;;;18.50;69.20;;;;;;5005784;28;42921;-83
2023/03/22 10:46:41;;;;;;;;;;;18.40;69.10;;;;;;5005438;28;43020;-83
2023/03/22 10:49:09;;;;;;;;;;;18.50;69.20;;;;;;5005477;28;43587;-84
2023/03/22 10:51:37;;;;;;;;;;;18.40;69.00;;;;;;5005827;28;43058;-83
2023/03/22 10:54:04;;;;;;;;;;;18.70;69.40;;;;;;5006096;28;43732;-83
2023/03/22 10:56:30;;;;;;;;;;;18.50;69.20;;;;;;5005898;28;42898;-83
2023/03/22 10:58:56;;;;;;;;;;;18.50;69.40;;;;;;5006099;28;43379;-84
2023/03/22 11:01:24;;;;;;;;;;;18.50;69.40;;;;;;5005770;28;42918;-84
2023/03/22 11:03:51;;;;;;;;;;;18.50;68.30;;;;;;5005957;28;42819;-84
2023/03/22 11:06:17;;;;;;;;;;;18.50;69.40;;;;;;5005732;28;42950;-84
2023/03/22 11:08:47;;;;;;;;;;;18.50;69.70;;;;;;5005626;28;42990;-83
2023/03/22 11:11:26;;;;;;;;;;;18.50;68.50;;;;;;5005723;28;42966;-84
2023/03/22 11:14:00;;;;;;;;;;;18.40;68.50;;;;;;5005566;28;42969;-82
2023/03/22 11:16:26;;;;;;;;;;;18.40;68.60;;;;;;5006018;28;42863;-83
2023/03/22 11:18:53;;;;;;;;;;;18.40;69.80;;;;;;5005760;28;42922;-81
2023/03/22 11:21:21;;;;;;;;;;;18.40;69.80;;;;;;5005680;28;43046;-80
2023/03/22 11:23:50;;;;;;;;;;;18.50;69.50;;;;;;5005906;28;42957;-77
2023/03/22 11:26:23;;;;;;;;;;;18.60;69.70;;;;;;5005168;28;43034;-83
2023/03/22 11:28:49;;;;;;;;;;;18.40;69.40;;;;;;5005466;28;43794;-82
2023/03/22 11:31:16;;;;;;;;;;;18.60;69.60;;;;;;5004978;28;43144;-80
2023/03/22 11:33:58;;;;;;;;;;;18.50;69.70;;;;;;5005395;28;42786;-82
2023/03/22 11:36:24;;;;;;;;;;;18.50;68.30;;;;;;5005379;28;42950;-82
2023/03/22 11:39:04;;;;;;;;;;;18.50;69.50;;;;;;5004964;28;42984;-82
2023/03/22 11:41:33;;;;;;;;;;;18.50;68.30;;;;;;5004688;28;42970;-82
2023/03/22 11:44:00;;;;;;;;;;;18.90;69.80;;;;;;5005246;28;43636;-79
2023/03/22 11:46:27;;;;;;;;;;;18.40;69.40;;;;;;5005162;28;42788;-83
2023/03/22 11:48:56;;;;;;;;;;;18.50;69.40;;;;;;5004691;28;42832;-80
2023/03/22 11:51:48;;;;;;;;;;;18.90;69.90;;;;;;4986658;28;43125;-76
2023/03/22 11:54:41;;;;;;;;;;;18.30;68.30;;;;;;5003470;28;44123;-82
2023/03/22 11:57:09;;;;;;;;;;;18.50;68.40;;;;;;5003441;28;42925;-82
2023/03/22 11:59:43;;;;;;;;;;;18.40;68.90;;;;;;4986251;28;43601;-77
2023/03/22 12:02:29;;;;;;;;;;;18.70;68.50;;;;;;5004451;28;42907;-83
2023/03/22 12:05:02;;;;;;;;;;;18.50;68.30;;;;;;5004714;28;42972;-81
2023/03/22 12:07:28;;;;;;;;;;;18.50;68.30;;;;;;5004980;28;42968;-82
2023/03/22 12:10:00;;;;;;;;;;;18.50;69.60;;;;;;5004689;28;43733;-83
2023/03/22 12:12:28;;;;;;;;;;;18.40;68.30;;;;;;5004884;28;43053;-82
2023/03/22 12:15:03;;;;;;;;;;;18.40;69.40;;;;;;5004794;28;43545;-82
2023/03/22 12:17:32;;;;;;;;;;;18.40;68.30;;;;;;5004727;28;42973;-82
2023/03/22 12:20:05;;;;;;;;;;;18.70;69.40;;;;;;5004682;28;43017;-83
2023/03/22 12:22:36;;;;;;;;;;;18.50;69.40;;;;;;5005028;28;42941;-83
2023/03/22 12:25:02;;;;;;;;;;;18.50;68.10;;;;;;5004872;28;43547;-83
2023/03/22 12:27:39;;;;;;;;;;;18.40;69.10;;;;;;5004679;28;43115;-76
2023/03/22 12:30:18;;;;;;;;;;;18.50;67.90;;;;;;5004690;28;42910;-83
2023/03/22 12:32:50;;;;;;;;;;;18.60;68.40;;;;;;5004571;28;43157;-81
2023/03/22 12:35:24;;;;;;;;;;;19.40;69.40;;;;;;5011746;28;43653;-78
2023/03/22 12:37:52;;;;;;;;;;;18.60;67.90;;;;;;5008084;28;42888;-85
2023/03/22 12:40:21;;;;;;;;;;;18.50;68.50;;;;;;5004418;28;42895;-85
2023/03/22 12:43:05;;;;;;;;;;;18.40;68.90;;;;;;5004558;28;42831;-77
2023/03/22 12:45:32;;;;;;;;;;;18.50;67.90;;;;;;5004611;28;43520;-82
2023/03/22 12:48:10;;;;;;;;;;;18.60;69.70;;;;;;4985553;28;42979;-84
2023/03/22 12:50:41;;;;;;;;;;;18.60;68.00;;;;;;5020849;28;43686;-84
2023/03/22 12:53:11;;;;;;;;;;;18.50;66.80;;;;;;5024210;28;42866;-81
2023/03/22 12:55:38;;;;;;;;;;;18.50;67.80;;;;;;5023395;28;42916;-78
2023/03/22 12:58:07;;;;;;;;;;;18.50;67.50;;;;;;5015765;28;43037;-77
2023/03/22 13:00:39;;;;;;;;;;;18.60;67.30;;;;;;5002918;28;43506;-78
2023/03/22 13:03:07;;;;;;;;;;;18.50;65.90;;;;;;5003939;28;42832;-83
2023/03/22 13:05:35;;;;;;;;;;;18.60;66.70;;;;;;5003005;28;43530;-79
2023/03/22 13:08:04;;;;;;;;;;;18.50;66.70;;;;;;5003821;28;43202;-83
2023/03/22 13:10:30;;;;;;;;;;;18.40;66.80;;;;;;5006360;28;43584;-81
2023/03/22 13:13:14;;;;;;;;;;;18.60;67.20;;;;;;5005921;28;42966;-82
2023/03/22 13:15:54;;;;;;;;;;;18.70;65.90;;;;;;5006752;28;43451;-84
2023/03/22 13:18:36;;;;;;;;;;;18.60;67.00;;;;;;5007202;28;42977;-82
2023/03/22 13:21:15;;;;;;;;;;;18.60;65.40;;;;;;5008653;28;43079;-84
2023/03/22 13:24:04;;;;;;;;;;;18.60;64.90;;;;;;5018925;28;42909;-83
2023/03/22 13:26:51;;;;;;;;;;;18.50;64.70;;;;;;5011609;28;43879;-83
2023/03/22 13:29:24;;;;;;;;;;;18.70;65.90;;;;;;5015003;28;42915;-82
2023/03/22 13:31:50;;;;;;;;;;;18.80;64.90;;;;;;5030510;28;42897;-80
2023/03/22 13:34:20;;;;;;;;;;;18.60;66.00;;;;;;5046529;28;42937;-81
2023/03/22 13:36:50;;;;;;;;;;;18.70;65.00;;;;;;5046334;28;43399;-82
2023/03/22 13:39:15;;;;;;;;;;;18.50;65.00;;;;;;5046406;28;42897;-81
2023/03/22 13:41:44;;;;;;;;;;;18.60;65.90;;;;;;5030103;28;43355;-80
2023/03/22 13:44:28;;;;;;;;;;;18.80;66.20;;;;;;5025475;28;43027;-82
2023/03/22 13:46:56;;;;;;;;;;;18.50;64.90;;;;;;5016664;28;42964;-79
2023/03/22 13:49:27;;;;;;;;;;;18.60;66.10;;;;;;5006180;28;42907;-82
2023/03/22 13:51:56;;;;;;;;;;;18.60;66.10;;;;;;5022908;28;44672;-81
2023/03/22 13:54:23;;;;;;;;;;;18.60;65.90;;;;;;5026525;28;43064;-82
2023/03/22 13:56:55;;;;;;;;;;;18.60;65.80;;;;;;5026040;28;42978;-80
2023/03/22 13:59:25;;;;;;;;;;;18.60;64.70;;;;;;5025856;28;43585;-82
2023/03/22 14:02:06;;;;;;;;;;;18.50;64.50;;;;;;5024014;28;43386;-85
2023/03/22 14:04:36;;;;;;;;;;;18.60;64.60;;;;;;5018875;28;42863;-82
2023/03/22 14:07:21;;;;;;;;;;;18.60;65.70;;;;;;5007778;28;43536;-83
2023/03/22 14:09:52;;;;;;;;;;;18.60;64.50;;;;;;5006567;28;42986;-82
2023/03/22 14:12:27;;;;;;;;;;;18.70;64.50;;;;;;5001852;28;44755;-79
2023/03/22 14:14:57;;;;;;;;;;;18.60;64.30;;;;;;5006057;28;43039;-81
2023/03/22 14:17:32;;;;;;;;;;;18.50;65.50;;;;;;5005838;28;43744;-82
2023/03/22 14:19:59;;;;;;;;;;;18.70;64.40;;;;;;5006554;28;43157;-82
2023/03/22 14:22:27;;;;;;;;;;;18.50;64.80;;;;;;5002237;28;45370;-79
2023/03/22 14:24:55;;;;;;;;;;;18.80;64.90;;;;;;5007430;28;43076;-83